Time;durP1;ratioP1;P1;durP2;ratioP2;P2;SDS_P1;SDS_P2;PMS_P1;PMS_P2;Temp;Humidity;BMP_temperature;BMP_pressure;BME280_temperature;BME280_humidity;BME280_pressure;Samples;Min_cycle;Max_cycle;Signal;HPM_P1;HPM_P2
2023/01/27 00:00:10;;;;;;;22.57;12.73;;;5.00;45.60;;;;;;5032264;28;20626;-52
2023/01/27 00:02:37;;;;;;;21.33;11.32;;;5.00;45.50;;;;;;5032019;28;20486;-52
2023/01/27 00:05:03;;;;;;;22.65;11.60;;;5.00;45.40;;;;;;5032097;28;20222;-52
2023/01/27 00:07:29;;;;;;;23.98;12.23;;;5.00;45.60;;;;;;5032127;28;20652;-52
2023/01/27 00:09:54;;;;;;;22.50;11.10;;;5.00;45.60;;;;;;5032530;28;20266;-52
2023/01/27 00:15:08;;;;;;;19.48;11.55;;;5.00;45.60;;;;;;5032162;28;20553;-52
2023/01/27 00:17:34;;;;;;;27.90;12.15;;;5.00;45.60;;;;;;5031896;28;20197;-51
2023/01/27 00:20:00;;;;;;;24.67;12.77;;;5.00;45.60;;;;;;5032003;28;20644;-51
2023/01/27 00:25:11;;;;;;;24.67;13.43;;;5.00;45.40;;;;;;5031799;28;20657;-52
2023/01/27 00:27:37;;;;;;;23.60;12.40;;;5.00;45.60;;;;;;5032082;28;20186;-52
2023/01/27 00:30:06;;;;;;;20.80;10.20;;;5.00;45.60;;;;;;5032193;28;20420;-52
2023/01/27 00:35:17;;;;;;;22.00;12.65;;;5.00;45.50;;;;;;5031917;28;20274;-52
2023/01/27 00:37:44;;;;;;;24.45;12.85;;;5.00;45.60;;;;;;5035704;28;20202;-52
2023/01/27 00:40:12;;;;;;;27.20;15.15;;;5.00;46.30;;;;;;5035841;28;20174;-52
2023/01/27 00:42:37;;;;;;;22.10;11.10;;;5.00;45.60;;;;;;5035880;28;20204;-52
2023/01/27 00:47:48;;;;;;;25.05;12.65;;;5.00;45.20;;;;;;5035941;28;20180;-52
2023/01/27 00:50:15;;;;;;;20.63;11.80;;;5.00;45.30;;;;;;5035644;28;20179;-52
2023/01/27 00:52:41;;;;;;;24.83;14.15;;;4.90;45.30;;;;;;5035524;28;20978;-51
2023/01/27 00:55:09;;;;;;;21.15;10.38;;;5.00;45.50;;;;;;5035379;28;20182;-52
2023/01/27 00:57:36;;;;;;;23.25;12.30;;;5.00;45.40;;;;;;5035388;28;20197;-51
2023/01/27 01:00:03;;;;;;;26.23;12.68;;;5.00;45.50;;;;;;5035769;28;20185;-52
2023/01/27 01:02:29;;;;;;;24.88;12.65;;;5.00;45.40;;;;;;5035318;28;20196;-52
2023/01/27 01:04:55;;;;;;;23.53;13.10;;;5.00;45.40;;;;;;5035497;28;20174;-51
2023/01/27 01:07:20;;;;;;;22.07;12.37;;;5.00;45.40;;;;;;5035434;28;20588;-52
2023/01/27 01:09:46;;;;;;;20.80;13.43;;;5.00;45.50;;;;;;5035376;28;20170;-52
2023/01/27 01:12:12;;;;;;;18.70;11.63;;;5.00;45.60;;;;;;5035306;28;20221;-53
2023/01/27 01:14:38;;;;;;;24.43;13.50;;;5.00;45.50;;;;;;5035351;28;20649;-52
2023/01/27 01:17:03;;;;;;;17.13;11.13;;;5.00;45.50;;;;;;5035109;28;20231;-51
2023/01/27 01:19:30;;;;;;;21.77;12.23;;;5.00;45.50;;;;;;5035356;28;20178;-52
2023/01/27 01:21:56;;;;;;;24.15;12.52;;;5.00;45.40;;;;;;5035060;28;20232;-52
2023/01/27 01:24:22;;;;;;;22.93;13.07;;;5.10;45.40;;;;;;5034888;28;20638;-51
2023/01/27 01:26:48;;;;;;;20.85;12.00;;;5.10;45.30;;;;;;5035066;28;20404;-52
2023/01/27 01:29:13;;;;;;;17.87;11.10;;;5.10;45.30;;;;;;5035234;28;20178;-52
2023/01/27 01:31:39;;;;;;;19.73;12.07;;;5.00;45.30;;;;;;5034776;28;20515;-51
2023/01/27 01:34:05;;;;;;;22.33;14.27;;;5.00;45.40;;;;;;5035121;28;20269;-52
2023/01/27 01:36:31;;;;;;;19.97;10.40;;;5.10;45.50;;;;;;5035007;28;20204;-52
2023/01/27 01:38:59;;;;;;;27.27;13.23;;;5.10;45.30;;;;;;5034779;28;20216;-51
2023/01/27 01:41:26;;;;;;;19.40;12.05;;;5.00;45.10;;;;;;5034936;28;20421;-52
2023/01/27 01:43:52;;;;;;;22.10;11.40;;;5.00;45.20;;;;;;5034694;28;20174;-51
2023/01/27 01:46:18;;;;;;;20.35;10.73;;;5.00;45.10;;;;;;5034968;28;20201;-51
2023/01/27 01:48:53;;;;;;;16.65;10.05;;;5.00;44.90;;;;;;5034795;28;20182;-51
2023/01/27 01:51:40;;;;;;;19.52;10.77;;;5.00;45.10;;;;;;5034697;28;20197;-52
2023/01/27 01:54:14;;;;;;;16.10;10.63;;;5.00;45.10;;;;;;5034763;28;20193;-51
2023/01/27 01:56:54;;;;;;;20.17;10.65;;;5.00;45.00;;;;;;5034328;28;20176;-52
2023/01/27 01:59:30;;;;;;;18.60;10.95;;;5.00;44.90;;;;;;5034709;28;20520;-52
2023/01/27 02:02:01;;;;;;;18.50;12.45;;;5.00;44.90;;;;;;5034460;28;20197;-52
2023/01/27 02:04:37;;;;;;;16.05;9.82;;;4.90;45.40;;;;;;5034397;28;20177;-52
2023/01/27 02:07:17;;;;;;;18.90;11.15;;;5.00;45.00;;;;;;5034274;28;20168;-53
2023/01/27 02:09:43;;;;;;;19.70;10.98;;;5.00;45.00;;;;;;5034187;28;20193;-51
2023/01/27 02:12:08;;;;;;;21.00;11.67;;;5.00;45.00;;;;;;5034217;28;20225;-52
2023/01/27 02:14:34;;;;;;;18.50;10.83;;;5.00;45.10;;;;;;5034226;28;20761;-51
2023/01/27 02:17:02;;;;;;;16.90;11.27;;;5.00;45.00;;;;;;5034051;28;20436;-52
2023/01/27 02:19:51;;;;;;;21.88;11.35;;;5.10;45.10;;;;;;5033961;28;20178;-52
2023/01/27 02:22:27;;;;;;;25.25;15.70;;;5.10;45.10;;;;;;5033809;28;20721;-51
2023/01/27 02:25:00;;;;;;;20.55;11.15;;;5.10;45.10;;;;;;5033980;28;20166;-52
2023/01/27 02:27:26;;;;;;;24.48;12.57;;;5.10;45.20;;;;;;5034003;28;20193;-52
2023/01/27 02:29:52;;;;;;;21.67;12.20;;;5.10;45.20;;;;;;5034073;28;20281;-51
2023/01/27 02:32:25;;;;;;;19.33;11.80;;;5.00;44.90;;;;;;5033982;28;20190;-52
2023/01/27 02:34:52;;;;;;;20.30;11.25;;;5.00;45.00;;;;;;5033783;28;20189;-52
2023/01/27 02:37:18;;;;;;;18.02;11.02;;;5.10;45.20;;;;;;5033581;28;20685;-52
2023/01/27 02:39:46;;;;;;;20.67;12.15;;;5.10;45.10;;;;;;5033964;28;20204;-52
2023/01/27 02:42:14;;;;;;;16.30;10.52;;;5.10;45.20;;;;;;5033840;28;20247;-53
2023/01/27 02:44:40;;;;;;;20.63;12.45;;;5.00;45.20;;;;;;5033330;28;20541;-52
2023/01/27 02:47:06;;;;;;;22.00;12.87;;;5.00;45.20;;;;;;5033780;28;20170;-52
2023/01/27 02:49:31;;;;;;;24.30;13.87;;;5.00;45.20;;;;;;5033424;28;20543;-52
2023/01/27 02:51:57;;;;;;;21.67;12.93;;;5.00;45.20;;;;;;5033401;28;20191;-51
2023/01/27 02:54:28;;;;;;;24.33;12.73;;;5.00;45.20;;;;;;5033216;28;20236;-51
2023/01/27 02:56:53;;;;;;;26.13;13.32;;;5.00;45.20;;;;;;5033283;28;20541;-52
2023/01/27 02:59:19;;;;;;;22.90;12.37;;;5.00;45.20;;;;;;5032680;28;20243;-51
2023/01/27 03:01:45;;;;;;;25.70;12.53;;;5.00;45.30;;;;;;5033441;28;20198;-52
2023/01/27 03:04:10;;;;;;;22.63;11.87;;;5.00;45.40;;;;;;5033444;28;20178;-52
2023/01/27 03:06:37;;;;;;;23.60;12.67;;;5.00;45.40;;;;;;5033175;28;20538;-52
2023/01/27 03:09:04;;;;;;;24.92;12.82;;;5.00;45.40;;;;;;5033330;28;20519;-52
2023/01/27 03:14:14;;;;;;;26.15;13.32;;;5.00;45.50;;;;;;5033212;28;20566;-52
2023/01/27 03:19:25;;;;;;;24.42;11.95;;;5.00;45.50;;;;;;5033186;28;20419;-52
2023/01/27 03:21:55;;;;;;;22.02;10.13;;;4.90;45.70;;;;;;5032642;28;20301;-52
2023/01/27 03:24:21;;;;;;;25.65;13.45;;;5.00;45.70;;;;;;5032592;28;20630;-52
2023/01/27 03:26:46;;;;;;;21.60;11.20;;;4.90;45.70;;;;;;5032676;28;20235;-52
2023/01/27 03:32:04;;;;;;;24.25;11.80;;;5.00;45.60;;;;;;5031730;28;20193;-51
2023/01/27 03:34:30;;;;;;;21.70;11.30;;;4.90;45.60;;;;;;5032407;28;20939;-51
2023/01/27 03:47:53;;;;;;;20.85;11.63;;;4.90;46.00;;;;;;5032738;28;20760;-51
2023/01/27 03:50:19;;;;;;;24.37;10.07;;;4.90;46.10;;;;;;5032548;28;20272;-52
2023/01/27 03:53:01;;;;;;;26.70;13.13;;;4.90;46.00;;;;;;5032344;28;20202;-51
2023/01/27 03:55:31;;;;;;;25.92;12.38;;;4.90;45.90;;;;;;5032106;28;20858;-52
2023/01/27 03:58:12;;;;;;;25.80;12.15;;;5.00;46.10;;;;;;5032197;28;20204;-52
2023/01/27 04:00:38;;;;;;;26.50;11.15;;;5.00;46.10;;;;;;5032434;28;20178;-51
2023/01/27 04:08:32;;;;;;;22.85;9.90;;;5.00;45.80;;;;;;5032201;28;20185;-51
2023/01/27 04:13:48;;;;;;;20.55;10.73;;;5.00;46.00;;;;;;5032361;28;20182;-51
2023/01/27 04:16:16;;;;;;;19.93;10.40;;;4.90;46.10;;;;;;5031815;28;20182;-52
2023/01/27 04:18:42;;;;;;;20.05;10.05;;;4.90;46.10;;;;;;5031933;28;20264;-52
2023/01/27 04:21:08;;;;;;;25.47;10.60;;;5.00;46.10;;;;;;5031819;28;20300;-52
2023/01/27 04:23:33;;;;;;;21.00;9.63;;;5.00;46.00;;;;;;5031924;28;20162;-52
2023/01/27 04:25:59;;;;;;;20.90;10.80;;;4.90;46.00;;;;;;5031828;28;20192;-51
2023/01/27 04:28:26;;;;;;;19.70;10.67;;;4.90;46.00;;;;;;5031954;28;20654;-52
2023/01/27 04:30:52;;;;;;;26.95;11.15;;;5.00;46.00;;;;;;5031691;28;20696;-52
2023/01/27 04:33:20;;;;;;;17.07;9.20;;;4.90;46.00;;;;;;5032185;28;20190;-52
2023/01/27 04:35:46;;;;;;;21.95;9.57;;;4.90;46.10;;;;;;5031902;28;20408;-52
2023/01/27 04:38:12;;;;;;;21.50;9.60;;;4.90;46.10;;;;;;5031706;28;20558;-52
2023/01/27 04:40:38;;;;;;;26.17;11.30;;;4.90;46.10;;;;;;5031881;28;20668;-52
2023/01/27 04:43:05;;;;;;;19.27;10.30;;;4.90;46.10;;;;;;5031647;28;20193;-52
2023/01/27 04:45:31;;;;;;;24.30;12.85;;;4.90;46.20;;;;;;5031509;28;20820;-51
2023/01/27 04:47:56;;;;;;;18.40;10.03;;;4.90;46.20;;;;;;5032075;28;20185;-52
2023/01/27 04:50:22;;;;;;;19.40;10.63;;;4.90;46.10;;;;;;5031758;28;20925;-52
2023/01/27 04:52:48;;;;;;;22.23;8.73;;;4.90;46.20;;;;;;5031879;28;20281;-52
2023/01/27 04:55:14;;;;;;;23.17;10.87;;;4.90;46.10;;;;;;5031572;28;20174;-52
2023/01/27 04:57:39;;;;;;;23.63;10.83;;;4.90;46.20;;;;;;5031568;28;20272;-52
2023/01/27 05:00:06;;;;;;;27.47;12.67;;;4.90;46.30;;;;;;5031596;28;20173;-52
2023/01/27 05:02:32;;;;;;;18.10;10.60;;;4.90;46.40;;;;;;5031515;28;20194;-52
2023/01/27 05:04:57;;;;;;;22.63;10.67;;;4.90;46.40;;;;;;5031361;28;20314;-51
2023/01/27 05:07:23;;;;;;;25.50;10.63;;;4.90;46.30;;;;;;5031880;28;20174;-51
2023/01/27 05:09:49;;;;;;;22.13;9.02;;;4.90;46.40;;;;;;5031590;28;20701;-52
2023/01/27 05:12:15;;;;;;;23.10;11.87;;;4.90;46.40;;;;;;5031433;28;20202;-52
2023/01/27 05:14:40;;;;;;;21.53;9.33;;;4.80;46.40;;;;;;5031294;28;20638;-52
2023/01/27 05:17:06;;;;;;;20.77;9.07;;;4.90;46.50;;;;;;5031465;28;20177;-52
2023/01/27 05:19:32;;;;;;;20.43;9.97;;;4.80;46.30;;;;;;5031566;28;20169;-51
2023/01/27 05:21:58;;;;;;;19.50;9.70;;;4.90;46.50;;;;;;5031934;28;20208;-51
2023/01/27 05:24:23;;;;;;;20.50;9.53;;;4.90;46.60;;;;;;5034960;28;20170;-52
2023/01/27 05:26:49;;;;;;;24.80;11.50;;;4.90;46.50;;;;;;5035306;28;20181;-53
2023/01/27 05:29:15;;;;;;;22.03;10.60;;;4.90;46.50;;;;;;5034915;28;20182;-51
2023/01/27 05:31:40;;;;;;;21.73;10.50;;;4.90;46.60;;;;;;5035052;28;20201;-52
2023/01/27 05:34:07;;;;;;;28.50;11.73;;;4.80;46.50;;;;;;5034795;28;20236;-51
2023/01/27 05:36:33;;;;;;;22.75;11.32;;;4.80;46.40;;;;;;5034655;28;20253;-52
2023/01/27 05:38:59;;;;;;;23.50;10.23;;;4.80;46.60;;;;;;5034775;28;20300;-52
2023/01/27 05:41:26;;;;;;;23.30;10.50;;;4.70;46.80;;;;;;5034603;28;20428;-51
2023/01/27 05:43:54;;;;;;;29.65;10.10;;;4.70;46.90;;;;;;5034609;28;20173;-52
2023/01/27 05:46:25;;;;;;;27.17;10.95;;;4.70;46.90;;;;;;5034463;28;20235;-51
2023/01/27 05:48:54;;;;;;;27.77;11.60;;;4.70;47.00;;;;;;5034955;28;20257;-52
2023/01/27 05:51:22;;;;;;;27.75;11.25;;;4.80;47.10;;;;;;5034469;28;20208;-52
2023/01/27 05:53:48;;;;;;;27.77;12.80;;;4.80;47.00;;;;;;5034839;28;20216;-52
2023/01/27 05:56:17;;;;;;;23.55;11.60;;;4.80;46.80;;;;;;5034138;28;20543;-51
2023/01/27 05:58:43;;;;;;;26.50;13.10;;;4.90;46.90;;;;;;5034537;28;20204;-52
2023/01/27 06:01:11;;;;;;;25.50;11.87;;;4.90;46.90;;;;;;5034308;28;20289;-52
2023/01/27 06:03:38;;;;;;;24.67;11.82;;;4.90;46.90;;;;;;5034437;28;20408;-52
2023/01/27 06:06:04;;;;;;;18.65;10.45;;;4.90;46.90;;;;;;5034045;28;20189;-52
2023/01/27 06:08:30;;;;;;;24.30;11.00;;;4.90;46.90;;;;;;5034161;28;20670;-52
2023/01/27 06:10:58;;;;;;;21.98;11.05;;;4.90;46.80;;;;;;5034095;28;20635;-51
2023/01/27 06:13:24;;;;;;;26.27;13.15;;;4.90;46.90;;;;;;5034344;28;20606;-52
2023/01/27 06:15:50;;;;;;;24.27;11.75;;;4.90;46.90;;;;;;5033918;28;20209;-52
2023/01/27 06:18:17;;;;;;;27.02;10.45;;;5.00;46.80;;;;;;5034009;28;20202;-53
2023/01/27 06:20:44;;;;;;;26.27;11.98;;;5.00;46.70;;;;;;5033700;28;20205;-52
2023/01/27 06:23:12;;;;;;;19.30;9.65;;;5.00;46.70;;;;;;5034106;28;20174;-53
2023/01/27 06:25:43;;;;;;;25.85;10.15;;;5.00;46.80;;;;;;5033837;28;20181;-52
2023/01/27 06:28:09;;;;;;;19.00;9.32;;;5.00;46.70;;;;;;5034021;28;20177;-51
2023/01/27 06:30:37;;;;;;;18.92;9.60;;;5.00;46.60;;;;;;5033938;28;20281;-51
2023/01/27 06:33:04;;;;;;;13.77;8.38;;;5.00;46.70;;;;;;5033502;28;20194;-51
2023/01/27 06:35:31;;;;;;;22.52;9.70;;;5.00;46.80;;;;;;5032877;28;20174;-51
2023/01/27 06:37:57;;;;;;;29.65;13.68;;;5.00;46.70;;;;;;5033592;28;20205;-52
2023/01/27 06:40:24;;;;;;;21.55;10.50;;;5.00;46.70;;;;;;5033824;28;20260;-52
2023/01/27 06:42:50;;;;;;;23.50;10.88;;;5.10;46.70;;;;;;5033556;28;20194;-52
2023/01/27 06:45:15;;;;;;;20.40;10.30;;;5.10;46.70;;;;;;5033475;28;20178;-52
2023/01/27 06:47:41;;;;;;;20.73;10.00;;;5.10;46.60;;;;;;5033622;28;20174;-52
2023/01/27 06:50:09;;;;;;;18.30;10.13;;;5.10;46.60;;;;;;5033695;28;20834;-52
2023/01/27 06:52:35;;;;;;;16.90;9.30;;;5.10;46.50;;;;;;5033325;28;20930;-51
2023/01/27 06:55:02;;;;;;;15.75;9.38;;;5.10;46.50;;;;;;5033064;28;20696;-52
2023/01/27 06:57:28;;;;;;;16.45;9.55;;;5.10;46.60;;;;;;5033485;28;20202;-51
2023/01/27 06:59:53;;;;;;;15.60;8.30;;;5.00;46.50;;;;;;5033295;28;20577;-52
2023/01/27 07:02:19;;;;;;;20.67;10.00;;;5.00;46.40;;;;;;5033170;28;20785;-52
2023/01/27 07:04:45;;;;;;;14.97;8.43;;;5.00;46.40;;;;;;5032912;28;20171;-53
2023/01/27 07:07:10;;;;;;;12.10;6.50;;;5.00;46.50;;;;;;5033162;28;20174;-52
2023/01/27 07:09:36;;;;;;;15.27;8.00;;;5.00;46.30;;;;;;5033302;28;20236;-52
2023/01/27 07:12:02;;;;;;;11.23;7.03;;;5.00;46.20;;;;;;5033108;28;20685;-51
2023/01/27 07:14:27;;;;;;;11.33;6.90;;;5.00;46.30;;;;;;5032788;28;20269;-53
2023/01/27 07:16:53;;;;;;;18.10;8.23;;;5.00;46.40;;;;;;5033184;28;20174;-52
2023/01/27 07:19:19;;;;;;;14.63;8.20;;;5.00;46.30;;;;;;5032767;28;20205;-52
2023/01/27 07:21:44;;;;;;;17.93;10.13;;;5.00;46.30;;;;;;5032576;28;20570;-53
2023/01/27 07:24:10;;;;;;;15.77;9.30;;;5.00;46.10;;;;;;5033084;28;20205;-52
2023/01/27 07:26:36;;;;;;;16.03;8.57;;;4.90;46.20;;;;;;5032665;28;20167;-52
2023/01/27 07:29:02;;;;;;;14.40;10.03;;;4.90;46.30;;;;;;5032694;28;20174;-52
2023/01/27 07:31:27;;;;;;;17.50;8.57;;;4.90;46.20;;;;;;5032630;28;20209;-53
2023/01/27 07:33:53;;;;;;;18.03;9.60;;;5.00;46.20;;;;;;5032627;28;20174;-52
2023/01/27 07:36:19;;;;;;;15.47;8.57;;;5.00;46.00;;;;;;5032583;28;20205;-52
2023/01/27 07:38:48;;;;;;;13.03;9.10;;;4.90;46.10;;;;;;5032715;28;20198;-52
2023/01/27 07:41:14;;;;;;;20.95;9.93;;;4.90;46.30;;;;;;5032594;28;20429;-52
2023/01/27 07:43:39;;;;;;;20.70;10.00;;;4.90;46.50;;;;;;5032519;28;20787;-53
2023/01/27 07:46:05;;;;;;;26.63;13.53;;;4.90;46.60;;;;;;5032379;28;20515;-52
2023/01/27 07:48:31;;;;;;;24.90;12.33;;;4.90;46.50;;;;;;5032318;28;20176;-53
2023/01/27 07:50:57;;;;;;;18.03;10.20;;;4.90;46.30;;;;;;5032220;28;20174;-52
2023/01/27 07:53:23;;;;;;;26.33;13.50;;;5.00;46.30;;;;;;5032603;28;20405;-52
2023/01/27 07:55:48;;;;;;;18.70;10.87;;;5.00;46.40;;;;;;5032311;28;20249;-53
2023/01/27 07:58:14;;;;;;;16.90;9.80;;;5.00;46.40;;;;;;5032101;28;20584;-52
2023/01/27 08:00:40;;;;;;;20.63;10.33;;;5.00;46.30;;;;;;5032219;28;20166;-52
2023/01/27 08:03:05;;;;;;;19.43;10.93;;;5.10;46.50;;;;;;5031908;28;20425;-52
2023/01/27 08:05:33;;;;;;;21.30;11.67;;;5.00;46.20;;;;;;5032003;28;20174;-53
2023/01/27 08:08:02;;;;;;;18.27;10.07;;;5.00;46.20;;;;;;5032176;28;20166;-52
2023/01/27 08:10:29;;;;;;;18.05;11.77;;;5.00;46.30;;;;;;5032365;28;20182;-52
2023/01/27 08:12:55;;;;;;;22.20;13.20;;;5.00;46.30;;;;;;5032130;28;20602;-53
2023/01/27 08:15:21;;;;;;;20.70;11.05;;;5.00;46.20;;;;;;5031900;28;20178;-52
2023/01/27 08:17:57;;;;;;;21.52;11.93;;;5.00;46.00;;;;;;5031827;28;20228;-51
2023/01/27 08:20:25;;;;;;;19.05;10.93;;;5.00;46.00;;;;;;5032146;28;20187;-52
2023/01/27 08:22:51;;;;;;;17.50;10.48;;;4.90;46.00;;;;;;5031788;28;20288;-53
2023/01/27 08:25:17;;;;;;;15.40;10.17;;;4.90;46.00;;;;;;5031745;28;20261;-52
2023/01/27 08:27:43;;;;;;;14.90;9.93;;;4.90;46.10;;;;;;5030776;28;20633;-52
2023/01/27 08:30:09;;;;;;;18.55;10.20;;;4.90;46.10;;;;;;5031879;28;20189;-52
2023/01/27 08:32:35;;;;;;;17.65;9.65;;;4.90;46.20;;;;;;5031761;28;20872;-52
2023/01/27 08:35:01;;;;;;;17.20;10.97;;;4.90;46.10;;;;;;5031663;28;20174;-53
2023/01/27 08:37:27;;;;;;;16.73;9.27;;;5.00;46.00;;;;;;5032004;28;20405;-52
2023/01/27 08:39:52;;;;;;;15.90;10.30;;;4.90;46.00;;;;;;5031771;28;20533;-52
2023/01/27 08:42:18;;;;;;;15.63;9.33;;;5.00;46.00;;;;;;5031805;28;20189;-51
2023/01/27 08:44:44;;;;;;;12.13;7.30;;;5.00;46.00;;;;;;5031839;28;20224;-52
2023/01/27 08:47:10;;;;;;;16.13;8.75;;;5.00;46.00;;;;;;5031916;28;20200;-52
2023/01/27 08:49:36;;;;;;;13.23;8.77;;;5.00;45.90;;;;;;5031932;28;20658;-51
2023/01/27 08:52:02;;;;;;;19.70;10.43;;;5.10;46.00;;;;;;5031630;28;20515;-52
2023/01/27 08:54:27;;;;;;;14.00;9.77;;;5.10;45.70;;;;;;5031724;28;20178;-52
2023/01/27 08:56:53;;;;;;;11.30;8.80;;;5.10;45.70;;;;;;5032406;28;20177;-51
2023/01/27 08:59:19;;;;;;;12.63;8.60;;;5.00;45.50;;;;;;5035491;28;20662;-52
2023/01/27 09:01:44;;;;;;;14.20;9.93;;;5.00;45.50;;;;;;5035466;28;20189;-52
2023/01/27 09:04:10;;;;;;;15.57;10.40;;;5.00;45.60;;;;;;5035716;28;20170;-51
2023/01/27 09:06:36;;;;;;;15.50;8.20;;;5.00;45.60;;;;;;5035455;28;20170;-51
2023/01/27 09:09:07;;;;;;;13.60;8.23;;;5.00;45.80;;;;;;5035498;28;20676;-51
2023/01/27 09:11:38;;;;;;;14.45;9.90;;;5.00;45.80;;;;;;5035271;28;20194;-52
2023/01/27 09:14:05;;;;;;;16.55;9.50;;;5.00;45.90;;;;;;5035484;28;20177;-51
2023/01/27 09:16:31;;;;;;;19.40;10.65;;;5.10;45.60;;;;;;5035249;28;20231;-51
2023/01/27 09:18:57;;;;;;;15.93;10.18;;;5.10;45.70;;;;;;5035028;28;20608;-52
2023/01/27 09:21:23;;;;;;;14.60;9.10;;;5.10;45.80;;;;;;5034773;28;20292;-51
2023/01/27 09:23:50;;;;;;;13.18;9.07;;;5.10;45.90;;;;;;5035182;28;20404;-52
2023/01/27 09:26:16;;;;;;;14.25;8.63;;;5.20;45.90;;;;;;5034927;28;20166;-51
2023/01/27 09:28:41;;;;;;;13.60;9.27;;;5.20;45.60;;;;;;5034930;28;20185;-51
2023/01/27 09:31:08;;;;;;;14.00;8.93;;;5.20;45.50;;;;;;5035042;28;20432;-52
2023/01/27 09:33:34;;;;;;;17.05;9.38;;;5.20;45.60;;;;;;5035204;28;20185;-51
2023/01/27 09:36:05;;;;;;;16.35;9.45;;;5.20;45.60;;;;;;5034697;28;20186;-51
2023/01/27 09:38:34;;;;;;;17.85;10.80;;;5.20;45.70;;;;;;5034807;28;20263;-52
2023/01/27 09:41:09;;;;;;;15.68;9.63;;;5.30;45.90;;;;;;5034673;28;20167;-51
2023/01/27 09:43:56;;;;;;;16.88;10.80;;;5.30;46.00;;;;;;5035048;28;20552;-51
2023/01/27 09:46:40;;;;;;;15.25;10.68;;;5.30;45.80;;;;;;5034412;28;20166;-51
2023/01/27 09:49:24;;;;;;;16.33;10.05;;;5.30;45.90;;;;;;5034967;28;20162;-51
2023/01/27 09:52:14;;;;;;;15.02;10.40;;;5.40;45.60;;;;;;5034506;28;20658;-52
2023/01/27 09:54:51;;;;;;;15.50;9.88;;;5.40;45.60;;;;;;5034642;28;20193;-52
2023/01/27 09:57:43;;;;;;;16.90;11.02;;;5.40;45.60;;;;;;5034771;28;20214;-51
2023/01/27 10:00:24;;;;;;;23.20;11.40;;;5.40;45.40;;;;;;5033970;28;20170;-51
2023/01/27 10:03:16;;;;;;;17.73;10.00;;;5.40;45.40;;;;;;5034344;28;20550;-51
2023/01/27 10:05:54;;;;;;;20.15;11.82;;;5.50;45.50;;;;;;5034413;28;20192;-52
2023/01/27 10:09:01;;;;;;;22.33;11.73;;;5.50;45.50;;;;;;5033174;28;20194;-51
2023/01/27 10:11:33;;;;;;;18.45;10.07;;;5.50;45.60;;;;;;5031756;28;20248;-51
2023/01/27 10:13:59;;;;;;;16.58;10.63;;;5.40;45.60;;;;;;5031751;28;20189;-52
2023/01/27 10:16:30;;;;;;;18.27;11.03;;;5.50;45.60;;;;;;5031550;28;20186;-53
2023/01/27 10:19:29;;;;;;;16.98;10.20;;;5.60;45.60;;;;;;5031768;28;20297;-52
2023/01/27 10:22:10;;;;;;;22.52;12.20;;;5.60;45.30;;;;;;5031511;28;20217;-52
2023/01/27 10:24:42;;;;;;;20.27;11.13;;;5.60;45.20;;;;;;5031632;28;20265;-52
2023/01/27 10:27:25;;;;;;;20.17;13.50;;;5.50;45.30;;;;;;5031597;28;20249;-52
2023/01/27 10:29:59;;;;;;;19.58;11.00;;;5.50;45.40;;;;;;5031503;28;20182;-51
2023/01/27 10:32:49;;;;;;;22.08;12.95;;;5.40;45.50;;;;;;5031515;28;20198;-51
2023/01/27 10:35:24;;;;;;;17.73;11.00;;;5.40;45.60;;;;;;5031180;28;20178;-51
2023/01/27 10:37:55;;;;;;;18.25;11.18;;;5.50;45.80;;;;;;5031309;28;20231;-52
2023/01/27 10:40:51;;;;;;;23.42;13.27;;;5.50;46.00;;;;;;5031434;28;20162;-52
2023/01/27 10:43:56;;;;;;;20.23;12.70;;;5.50;45.80;;;;;;5033494;28;20185;-51
2023/01/27 10:46:37;;;;;;;19.60;11.48;;;5.50;45.90;;;;;;5033335;28;20177;-52
2023/01/27 10:49:12;;;;;;;20.10;12.00;;;5.50;46.00;;;;;;5033806;28;20174;-52
2023/01/27 10:51:44;;;;;;;18.10;12.13;;;5.60;45.90;;;;;;5033467;28;20197;-52
2023/01/27 10:54:31;;;;;;;21.00;12.40;;;5.60;45.70;;;;;;5033331;28;20206;-53
2023/01/27 10:57:13;;;;;;;21.13;12.00;;;5.60;45.70;;;;;;5033291;28;20346;-52
2023/01/27 11:00:11;;;;;;;20.17;12.07;;;5.60;45.70;;;;;;5033470;28;20198;-52
2023/01/27 11:02:44;;;;;;;25.75;12.50;;;5.50;45.70;;;;;;5033205;28;20182;-52
2023/01/27 11:05:23;;;;;;;18.92;11.38;;;5.50;46.00;;;;;;5033309;28;20636;-52
2023/01/27 11:07:55;;;;;;;22.45;13.15;;;5.60;45.90;;;;;;5033205;28;20184;-52
2023/01/27 11:10:24;;;;;;;22.55;12.02;;;5.60;45.90;;;;;;5033410;28;20162;-52
2023/01/27 11:12:54;;;;;;;22.23;12.52;;;5.50;46.00;;;;;;5032865;28;20201;-52
2023/01/27 11:15:32;;;;;;;19.23;12.10;;;5.60;45.80;;;;;;5032728;28;20192;-52
2023/01/27 11:18:11;;;;;;;28.17;14.05;;;5.50;46.00;;;;;;5033126;28;20194;-52
2023/01/27 11:20:44;;;;;;;24.30;13.20;;;5.50;46.20;;;;;;5032520;28;20257;-52
2023/01/27 11:23:16;;;;;;;23.83;14.20;;;5.50;46.30;;;;;;5032822;28;20166;-52
2023/01/27 11:26:03;;;;;;;20.98;12.25;;;5.60;46.20;;;;;;5032934;28;20174;-52
2023/01/27 11:28:52;;;;;;;25.10;13.75;;;5.60;46.30;;;;;;5032731;28;20173;-52
2023/01/27 11:31:50;;;;;;;25.70;14.82;;;5.60;46.20;;;;;;5033203;28;20206;-52
2023/01/27 11:34:31;;;;;;;24.67;14.57;;;5.70;46.20;;;;;;5032839;28;20257;-53
2023/01/27 11:36:58;;;;;;;26.95;16.00;;;5.60;46.20;;;;;;5032708;28;20546;-53
2023/01/27 11:39:26;;;;;;;24.38;15.70;;;5.60;46.30;;;;;;5032758;28;20198;-52
2023/01/27 11:41:54;;;;;;;31.27;15.82;;;5.60;46.30;;;;;;5032381;28;20225;-52
2023/01/27 11:44:25;;;;;;;26.15;13.40;;;5.60;46.30;;;;;;5032310;28;20260;-52
2023/01/27 11:46:52;;;;;;;21.95;13.35;;;5.60;46.30;;;;;;5032467;28;20642;-51
2023/01/27 11:49:24;;;;;;;26.85;14.77;;;5.70;46.50;;;;;;5032527;28;20186;-52
2023/01/27 11:51:50;;;;;;;29.00;16.35;;;5.70;46.50;;;;;;5032382;28;20272;-52
2023/01/27 11:54:28;;;;;;;25.03;15.73;;;5.70;46.50;;;;;;5032164;28;20257;-51
2023/01/27 11:56:53;;;;;;;29.10;15.57;;;5.70;46.30;;;;;;5032512;28;20500;-52
2023/01/27 11:59:25;;;;;;;30.90;15.57;;;5.70;46.50;;;;;;5032271;28;20308;-52
2023/01/27 12:02:28;;;;;;;21.65;13.40;;;5.70;46.50;;;;;;5032105;28;20272;-52
2023/01/27 12:05:03;;;;;;;26.73;13.63;;;5.70;46.50;;;;;;5030643;28;20195;-52
2023/01/27 12:07:48;;;;;;;27.60;13.98;;;5.80;46.50;;;;;;5032168;28;20204;-52
2023/01/27 12:10:39;;;;;;;25.60;15.02;;;5.80;46.30;;;;;;5032252;28;20185;-52
2023/01/27 12:13:16;;;;;;;25.20;15.30;;;5.80;46.30;;;;;;5031943;28;20198;-52
2023/01/27 12:15:55;;;;;;;27.92;16.50;;;5.80;46.40;;;;;;5032061;28;20174;-52
2023/01/27 12:18:22;;;;;;;26.17;13.65;;;5.70;46.40;;;;;;5032260;28;20189;-51
2023/01/27 12:21:03;;;;;;;28.85;14.50;;;5.70;46.50;;;;;;5031897;28;20178;-52
2023/01/27 12:23:33;;;;;;;24.83;12.95;;;5.70;46.60;;;;;;5032219;28;20540;-52
2023/01/27 12:26:11;;;;;;;28.85;15.88;;;5.70;46.50;;;;;;5032226;28;20174;-52
2023/01/27 12:28:42;;;;;;;24.33;14.10;;;5.70;46.50;;;;;;5031907;28;20245;-52
2023/01/27 12:31:17;;;;;;;25.90;14.65;;;5.70;46.60;;;;;;5031863;28;20213;-52
2023/01/27 12:33:57;;;;;;;23.58;13.85;;;5.70;46.50;;;;;;5035871;28;20173;-52
2023/01/27 12:36:23;;;;;;;23.92;15.02;;;5.70;46.50;;;;;;5035844;28;20158;-52
2023/01/27 12:38:59;;;;;;;31.65;15.10;;;5.70;46.50;;;;;;5036163;28;20204;-51
2023/01/27 12:41:31;;;;;;;25.55;15.57;;;5.70;46.60;;;;;;5036078;28;20194;-52
2023/01/27 12:44:12;;;;;;;30.85;15.95;;;5.70;46.50;;;;;;5036213;28;20178;-52
2023/01/27 12:46:58;;;;;;;25.27;15.25;;;5.70;46.70;;;;;;5035642;28;20272;-52
2023/01/27 12:49:28;;;;;;;30.08;14.50;;;5.80;46.70;;;;;;5035777;28;20174;-52
2023/01/27 12:51:54;;;;;;;23.90;12.82;;;5.80;46.60;;;;;;5035958;28;20288;-52
2023/01/27 12:54:23;;;;;;;25.15;14.75;;;5.90;46.70;;;;;;5035806;28;20784;-52
2023/01/27 12:56:53;;;;;;;26.85;14.52;;;5.90;46.60;;;;;;5035555;28;20182;-53
2023/01/27 12:59:22;;;;;;;23.63;13.88;;;5.90;46.60;;;;;;5035709;28;20208;-52
2023/01/27 13:02:02;;;;;;;20.77;13.15;;;5.90;46.50;;;;;;5035423;28;20263;-52
2023/01/27 13:04:29;;;;;;;26.08;12.35;;;6.00;46.40;;;;;;5035561;28;20235;-52
2023/01/27 13:07:01;;;;;;;18.48;11.77;;;5.90;46.30;;;;;;5035437;28;20178;-52
2023/01/27 13:09:44;;;;;;;21.30;12.02;;;5.90;46.30;;;;;;5035288;28;20174;-52
2023/01/27 13:12:28;;;;;;;23.40;11.55;;;5.90;46.30;;;;;;5035458;28;20225;-52
2023/01/27 13:15:07;;;;;;;22.63;13.10;;;5.90;46.30;;;;;;5035220;28;20207;-52
2023/01/27 13:17:37;;;;;;;28.83;14.52;;;5.90;46.30;;;;;;5035368;28;20179;-52
2023/01/27 13:20:06;;;;;;;20.63;13.70;;;5.90;46.60;;;;;;5035276;28;20263;-52
2023/01/27 13:22:41;;;;;;;20.95;12.50;;;5.90;46.50;;;;;;5035092;28;20300;-52
2023/01/27 13:25:17;;;;;;;19.30;10.88;;;5.90;46.50;;;;;;5034979;28;20584;-52
2023/01/27 13:27:45;;;;;;;22.27;11.73;;;5.90;46.60;;;;;;5035074;28;20162;-51
2023/01/27 13:30:32;;;;;;;21.05;12.52;;;5.90;46.70;;;;;;5035023;28;20185;-52